Terminal Aerodrome Forecast
Issued by NWS Charleston, WV

Current Version | Previous Version | Graphics & Text | Print | Product List | Glossary On
Versions: 1 2 3 4 5 6 7 8 9 10 11 12 13 14 15 16 17 18 19 20 21 22 23 24
691
FTUS41 KRLX 220529
TAFEKN
TAF
KEKN 220529Z 2206/2306 00000KT 3SM BR OVC003
     FM220900 00000KT 1/2SM FG BKN001
     FM221300 VRB03KT 3SM BR BKN080
     FM221500 22005KT P6SM BKN050
     FM222000 24006KT P6SM -SHRA VCTS BKN035CB=

USA.gov is the U.S. government's official web portal to all federal, state and local government web resources and services.